Terminal Aerodrome Forecast
Issued by NWS

Home | Current Version | Previous Version | Text Only | Print | Product List | Glossary On
Versions: 1 2 3 4 5 6 7 8 9 10 11 12 13 14 15 16
000
FTUS44 KLIX 220705 AAA
TAFMCB
TAF AMD
KMCB 220705Z 2207/2306 14003KT 1SM BR VV002
      TEMPO 2207/2211 1/4SM FG VV001
     FM221400 VRB03KT P6SM SCT040
     FM221900 19004KT P6SM BKN090 PROB30 2219/2223 4SM TSRA OVC040CB
     FM230400 VRB03KT P6SM SCT200=

USA.gov is the U.S. government's official web portal to all federal, state and local government web resources and services.